ARG1581 SASA-SACO
Flight info
| Callsign | ARG1581 |
|---|---|
| Flight time | 1h 3m |
| Altitude | FL350 |
| Route | MUBO2G PONPI UN525 DONKA DONK1U |
| Aircraft | B38M/M-SDE2E3FGHIRWXY/LB1 |
Departure
| Time | 2026-04-21 22:55 |
|---|---|
| Airport | Martín Miguel de Güemes International Airport (SASA) |
Arrival
| Time | 2026-04-21 23:58 |
|---|---|
| Airport | Ingeniero Aeronáutico Ambrosio L.V. Taravella International Airport (SACO) |
| Time | Latitude | Longitude | Altitude | Speed | Heading |
|---|---|---|---|---|---|
| 2026-04-21 22:29 | -24.84499 | -65.47826 | 4019 ft | 0 kts | 22° |
| 2026-04-21 22:46 | -24.84507 | -65.47829 | 4019 ft | 4 kts | 15° |
| 2026-04-21 22:46 | -24.84531 | -65.47829 | 4019 ft | 4 kts | 330° |
| 2026-04-21 22:47 | -24.84545 | -65.47812 | 4020 ft | 1 kts | 292° |
| 2026-04-21 22:47 | -24.84546 | -65.47811 | 4020 ft | 2 kts | 292° |
| 2026-04-21 22:51 | -24.84545 | -65.47814 | 4020 ft | 1 kts | 292° |
| 2026-04-21 22:51 | -24.84540 | -65.47828 | 4020 ft | 3 kts | 292° |
| 2026-04-21 22:51 | -24.84523 | -65.47873 | 4019 ft | 4 kts | 292° |
| 2026-04-21 22:51 | -24.84517 | -65.47918 | 4019 ft | 7 kts | 266° |
| 2026-04-21 22:52 | -24.84513 | -65.47976 | 4019 ft | 8 kts | 272° |
| 2026-04-21 22:52 | -24.84524 | -65.48042 | 4020 ft | 9 kts | 252° |
| 2026-04-21 22:52 | -24.84545 | -65.48115 | 4020 ft | 10 kts | 252° |
| 2026-04-21 22:52 | -24.84568 | -65.48195 | 4019 ft | 12 kts | 252° |
| 2026-04-21 22:53 | -24.84588 | -65.48261 | 4020 ft | 9 kts | 252° |
| 2026-04-21 22:53 | -24.84616 | -65.48331 | 4019 ft | 11 kts | 230° |
| 2026-04-21 22:53 | -24.84672 | -65.48390 | 4019 ft | 12 kts | 222° |
| 2026-04-21 22:53 | -24.84740 | -65.48443 | 4020 ft | 12 kts | 196° |
| 2026-04-21 22:54 | -24.84979 | -65.48493 | 4020 ft | 68 kts | 191° |
| 2026-04-21 22:54 | -24.85652 | -65.48637 | 4021 ft | 128 kts | 191° |
| 2026-04-21 22:54 | -24.86691 | -65.48859 | 4018 ft | 175 kts | 190° |
| 2026-04-21 22:54 | -24.87893 | -65.49159 | 4621 ft | 162 kts | 195° |
| 2026-04-21 22:55 | -24.88965 | -65.49412 | 5235 ft | 163 kts | 185° |
| 2026-04-21 22:55 | -24.90147 | -65.49620 | 5480 ft | 180 kts | 188° |
| 2026-04-21 22:55 | -24.91428 | -65.49898 | 5855 ft | 196 kts | 188° |
| 2026-04-21 22:55 | -24.92829 | -65.50205 | 6168 ft | 216 kts | 188° |
| 2026-04-21 22:56 | -24.94377 | -65.50546 | 6487 ft | 239 kts | 188° |
| 2026-04-21 22:56 | -24.96077 | -65.50923 | 6982 ft | 253 kts | 188° |
| 2026-04-21 22:56 | -24.97853 | -65.50948 | 7594 ft | 264 kts | 166° |
| 2026-04-21 22:56 | -24.99697 | -65.50480 | 8106 ft | 281 kts | 166° |
| 2026-04-21 22:57 | -25.01657 | -65.50010 | 8720 ft | 293 kts | 167° |
| 2026-04-21 22:57 | -25.03656 | -65.49523 | 9562 ft | 297 kts | 167° |
| 2026-04-21 22:57 | -25.05691 | -65.49022 | 10307 ft | 304 kts | 167° |
| 2026-04-21 22:57 | -25.07804 | -65.48499 | 10749 ft | 321 kts | 168° |
| 2026-04-21 22:58 | -25.10036 | -65.47944 | 11142 ft | 337 kts | 168° |
| 2026-04-21 22:58 | -25.12355 | -65.47366 | 11717 ft | 345 kts | 168° |
| 2026-04-21 22:58 | -25.14697 | -65.46783 | 12497 ft | 347 kts | 169° |
| 2026-04-21 22:58 | -25.17055 | -65.46196 | 13235 ft | 350 kts | 169° |
| 2026-04-21 22:59 | -25.19440 | -65.45601 | 13958 ft | 354 kts | 170° |
| 2026-04-21 22:59 | -25.21852 | -65.44999 | 14579 ft | 358 kts | 170° |
| 2026-04-21 22:59 | -25.24282 | -65.44393 | 15238 ft | 361 kts | 170° |
| 2026-04-21 22:59 | -25.26742 | -65.43779 | 15855 ft | 365 kts | 171° |
| 2026-04-21 23:00 | -25.29226 | -65.43159 | 16477 ft | 368 kts | 171° |
| 2026-04-21 23:00 | -25.31731 | -65.42533 | 17086 ft | 372 kts | 171° |
| 2026-04-21 23:00 | -25.34261 | -65.41901 | 17708 ft | 375 kts | 171° |
| 2026-04-21 23:00 | -25.36814 | -65.41262 | 18316 ft | 379 kts | 171° |
| 2026-04-21 23:01 | -25.39392 | -65.40617 | 18856 ft | 382 kts | 171° |
| 2026-04-21 23:01 | -25.41990 | -65.39967 | 19363 ft | 386 kts | 171° |
| 2026-04-21 23:01 | -25.44616 | -65.39309 | 19857 ft | 389 kts | 171° |
| 2026-04-21 23:01 | -25.47262 | -65.38647 | 20363 ft | 393 kts | 171° |
| 2026-04-21 23:02 | -25.49935 | -65.37977 | 20861 ft | 396 kts | 171° |
| 2026-04-21 23:02 | -25.52632 | -65.37300 | 21362 ft | 400 kts | 171° |
| 2026-04-21 23:02 | -25.55353 | -65.36618 | 21837 ft | 403 kts | 171° |
| 2026-04-21 23:02 | -25.58094 | -65.35930 | 22337 ft | 407 kts | 170° |
| 2026-04-21 23:03 | -25.60867 | -65.35234 | 22778 ft | 411 kts | 170° |
| 2026-04-21 23:03 | -25.63668 | -65.34531 | 23187 ft | 416 kts | 170° |
| 2026-04-21 23:03 | -25.66492 | -65.33821 | 23661 ft | 419 kts | 170° |
| 2026-04-21 23:03 | -25.69343 | -65.33105 | 24041 ft | 423 kts | 170° |
| 2026-04-21 23:04 | -25.72216 | -65.32383 | 24443 ft | 425 kts | 170° |
| 2026-04-21 23:04 | -25.75100 | -65.31668 | 24865 ft | 426 kts | 173° |
| 2026-04-21 23:04 | -25.78029 | -65.31132 | 25243 ft | 429 kts | 174° |
| 2026-04-21 23:04 | -25.80973 | -65.30593 | 25639 ft | 431 kts | 174° |
| 2026-04-21 23:05 | -25.83937 | -65.30038 | 26039 ft | 434 kts | 174° |
| 2026-04-21 23:05 | -25.86921 | -65.29476 | 26403 ft | 437 kts | 174° |
| 2026-04-21 23:05 | -25.89917 | -65.28910 | 26773 ft | 439 kts | 175° |
| 2026-04-21 23:05 | -25.92931 | -65.28339 | 27130 ft | 441 kts | 175° |
| 2026-04-21 23:06 | -25.95964 | -65.27764 | 27471 ft | 444 kts | 175° |
| 2026-04-21 23:06 | -25.99013 | -65.27187 | 27832 ft | 447 kts | 175° |
| 2026-04-21 23:06 | -26.02078 | -65.26606 | 28165 ft | 449 kts | 175° |
| 2026-04-21 23:06 | -26.05162 | -65.26021 | 28513 ft | 451 kts | 176° |
| 2026-04-21 23:07 | -26.08258 | -65.25433 | 28852 ft | 454 kts | 176° |
| 2026-04-21 23:07 | -26.11375 | -65.24840 | 29171 ft | 457 kts | 176° |
| 2026-04-21 23:07 | -26.14507 | -65.24245 | 29501 ft | 459 kts | 176° |
| 2026-04-21 23:07 | -26.17652 | -65.23647 | 29826 ft | 461 kts | 176° |
| 2026-04-21 23:08 | -26.20822 | -65.23044 | 30114 ft | 464 kts | 176° |
| 2026-04-21 23:08 | -26.24004 | -65.22438 | 30388 ft | 466 kts | 176° |
| 2026-04-21 23:08 | -26.27203 | -65.21829 | 30649 ft | 468 kts | 176° |
| 2026-04-21 23:08 | -26.30413 | -65.21218 | 30904 ft | 471 kts | 176° |
| 2026-04-21 23:09 | -26.33646 | -65.20601 | 31152 ft | 473 kts | 176° |
| 2026-04-21 23:09 | -26.36888 | -65.19982 | 31410 ft | 475 kts | 177° |
| 2026-04-21 23:09 | -26.40152 | -65.19359 | 31669 ft | 477 kts | 177° |
| 2026-04-21 23:09 | -26.43426 | -65.18734 | 31922 ft | 479 kts | 177° |
| 2026-04-21 23:10 | -26.46715 | -65.18105 | 32155 ft | 482 kts | 177° |
| 2026-04-21 23:10 | -26.50020 | -65.17474 | 32419 ft | 484 kts | 177° |
| 2026-04-21 23:10 | -26.53342 | -65.16838 | 32686 ft | 486 kts | 177° |
| 2026-04-21 23:10 | -26.56674 | -65.16201 | 32894 ft | 489 kts | 178° |
| 2026-04-21 23:11 | -26.60033 | -65.15557 | 33124 ft | 491 kts | 178° |
| 2026-04-21 23:11 | -26.63399 | -65.14911 | 33403 ft | 493 kts | 178° |
| 2026-04-21 23:11 | -26.66770 | -65.14264 | 33718 ft | 493 kts | 178° |
| 2026-04-21 23:11 | -26.70142 | -65.13618 | 34032 ft | 493 kts | 178° |
| 2026-04-21 23:12 | -26.73515 | -65.12970 | 34320 ft | 493 kts | 178° |
| 2026-04-21 23:12 | -26.76890 | -65.12322 | 34609 ft | 492 kts | 178° |
| 2026-04-21 23:12 | -26.80256 | -65.11674 | 34903 ft | 492 kts | 178° |
| 2026-04-21 23:12 | -26.83623 | -65.11026 | 35116 ft | 492 kts | 178° |
| 2026-04-21 23:13 | -26.90339 | -65.09720 | 35144 ft | 489 kts | 178° |
| 2026-04-21 23:13 | -26.97023 | -65.08420 | 35131 ft | 489 kts | 178° |
| 2026-04-21 23:14 | -27.03718 | -65.07117 | 35125 ft | 489 kts | 178° |
| 2026-04-21 23:14 | -27.10416 | -65.05812 | 35116 ft | 489 kts | 178° |
| 2026-04-21 23:15 | -27.17112 | -65.04506 | 35116 ft | 490 kts | 178° |
| 2026-04-21 23:15 | -27.23810 | -65.03197 | 35114 ft | 489 kts | 178° |
| 2026-04-21 23:16 | -27.30506 | -65.01888 | 35104 ft | 489 kts | 178° |
| 2026-04-21 23:16 | -27.37198 | -65.00577 | 35104 ft | 489 kts | 179° |
| 2026-04-21 23:17 | -27.43894 | -64.99265 | 35106 ft | 489 kts | 179° |
| 2026-04-21 23:17 | -27.50594 | -64.97950 | 35102 ft | 490 kts | 179° |
| 2026-04-21 23:18 | -27.57294 | -64.96633 | 35104 ft | 490 kts | 179° |
| 2026-04-21 23:18 | -27.64001 | -64.95313 | 35114 ft | 490 kts | 179° |
| 2026-04-21 23:19 | -27.70712 | -64.93991 | 35113 ft | 491 kts | 179° |
| 2026-04-21 23:19 | -27.77429 | -64.92720 | 35114 ft | 490 kts | 179° |
| 2026-04-21 23:20 | -27.84151 | -64.91484 | 35121 ft | 491 kts | 179° |
| 2026-04-21 23:20 | -27.90881 | -64.90240 | 35118 ft | 491 kts | 179° |
| 2026-04-21 23:21 | -27.97621 | -64.88992 | 35117 ft | 492 kts | 179° |
| 2026-04-21 23:21 | -28.04363 | -64.87742 | 35120 ft | 492 kts | 179° |
| 2026-04-21 23:22 | -28.11105 | -64.86490 | 35120 ft | 493 kts | 179° |
| 2026-04-21 23:22 | -28.17866 | -64.85233 | 35118 ft | 493 kts | 179° |
| 2026-04-21 23:23 | -28.24627 | -64.83975 | 35118 ft | 494 kts | 179° |
| 2026-04-21 23:23 | -28.31386 | -64.82715 | 35117 ft | 493 kts | 179° |
| 2026-04-21 23:24 | -28.38153 | -64.81452 | 35119 ft | 494 kts | 179° |
| 2026-04-21 23:24 | -28.44914 | -64.80189 | 35116 ft | 494 kts | 179° |
| 2026-04-21 23:25 | -28.51689 | -64.78921 | 35060 ft | 495 kts | 181° |
| 2026-04-21 23:25 | -28.58530 | -64.77640 | 35106 ft | 503 kts | 181° |
| 2026-04-21 23:26 | -28.65420 | -64.76247 | 35113 ft | 505 kts | 179° |
| 2026-04-21 23:26 | -28.72309 | -64.74753 | 35113 ft | 505 kts | 180° |
| 2026-04-21 23:27 | -28.79135 | -64.73286 | 34489 ft | 497 kts | 180° |
| 2026-04-21 23:27 | -28.82535 | -64.72556 | 33783 ft | 499 kts | 180° |
| 2026-04-21 23:27 | -28.85931 | -64.71825 | 33179 ft | 496 kts | 180° |
| 2026-04-21 23:28 | -28.89301 | -64.71099 | 32731 ft | 491 kts | 180° |
| 2026-04-21 23:28 | -28.92631 | -64.70383 | 32262 ft | 486 kts | 179° |
| 2026-04-21 23:28 | -28.95936 | -64.69670 | 31761 ft | 483 kts | 179° |
| 2026-04-21 23:28 | -28.99220 | -64.68962 | 31251 ft | 480 kts | 179° |
| 2026-04-21 23:29 | -29.02487 | -64.68257 | 30762 ft | 477 kts | 179° |
| 2026-04-21 23:29 | -29.05729 | -64.67558 | 30250 ft | 474 kts | 179° |
| 2026-04-21 23:29 | -29.08957 | -64.66860 | 29685 ft | 472 kts | 179° |
| 2026-04-21 23:29 | -29.12159 | -64.66168 | 29158 ft | 468 kts | 178° |
| 2026-04-21 23:30 | -29.15330 | -64.65482 | 28685 ft | 463 kts | 178° |
| 2026-04-21 23:30 | -29.18474 | -64.64802 | 28203 ft | 458 kts | 178° |
| 2026-04-21 23:30 | -29.21568 | -64.64131 | 27719 ft | 447 kts | 178° |
| 2026-04-21 23:30 | -29.24569 | -64.63481 | 27262 ft | 433 kts | 178° |
| 2026-04-21 23:31 | -29.27486 | -64.62848 | 26817 ft | 421 kts | 178° |
| 2026-04-21 23:31 | -29.30322 | -64.62233 | 26378 ft | 410 kts | 178° |
| 2026-04-21 23:31 | -29.33090 | -64.61632 | 25956 ft | 400 kts | 178° |
| 2026-04-21 23:31 | -29.35781 | -64.61048 | 25557 ft | 390 kts | 177° |
| 2026-04-21 23:32 | -29.38414 | -64.60476 | 25153 ft | 381 kts | 177° |
| 2026-04-21 23:32 | -29.40999 | -64.59915 | 24765 ft | 382 kts | 177° |
| 2026-04-21 23:32 | -29.43629 | -64.59344 | 24359 ft | 387 kts | 176° |
| 2026-04-21 23:32 | -29.46272 | -64.58767 | 23967 ft | 388 kts | 176° |
| 2026-04-21 23:33 | -29.48914 | -64.58192 | 23568 ft | 387 kts | 176° |
| 2026-04-21 23:33 | -29.51548 | -64.57619 | 23121 ft | 385 kts | 176° |
| 2026-04-21 23:33 | -29.54170 | -64.57048 | 22724 ft | 383 kts | 176° |
| 2026-04-21 23:33 | -29.56771 | -64.56481 | 22346 ft | 380 kts | 176° |
| 2026-04-21 23:34 | -29.59354 | -64.55922 | 21960 ft | 376 kts | 177° |
| 2026-04-21 23:34 | -29.61925 | -64.55439 | 21551 ft | 374 kts | 177° |
| 2026-04-21 23:34 | -29.64478 | -64.54959 | 21212 ft | 371 kts | 177° |
| 2026-04-21 23:34 | -29.67013 | -64.54480 | 20855 ft | 368 kts | 177° |
| 2026-04-21 23:35 | -29.69529 | -64.54002 | 20499 ft | 366 kts | 177° |
| 2026-04-21 23:35 | -29.72026 | -64.53528 | 20143 ft | 363 kts | 177° |
| 2026-04-21 23:35 | -29.74507 | -64.53056 | 19796 ft | 361 kts | 176° |
| 2026-04-21 23:35 | -29.76971 | -64.52587 | 19446 ft | 359 kts | 176° |
| 2026-04-21 23:36 | -29.79422 | -64.52120 | 19095 ft | 357 kts | 176° |
| 2026-04-21 23:36 | -29.81860 | -64.51656 | 18748 ft | 355 kts | 176° |
| 2026-04-21 23:36 | -29.84288 | -64.51193 | 18395 ft | 354 kts | 176° |
| 2026-04-21 23:36 | -29.86704 | -64.50732 | 17999 ft | 352 kts | 176° |
| 2026-04-21 23:37 | -29.89107 | -64.50274 | 17638 ft | 349 kts | 176° |
| 2026-04-21 23:37 | -29.91492 | -64.49819 | 17291 ft | 346 kts | 176° |
| 2026-04-21 23:37 | -29.93851 | -64.49365 | 16944 ft | 344 kts | 175° |
| 2026-04-21 23:37 | -29.96203 | -64.48865 | 16555 ft | 343 kts | 175° |
| 2026-04-21 23:38 | -29.98537 | -64.48366 | 16224 ft | 340 kts | 175° |
| 2026-04-21 23:38 | -30.00855 | -64.47873 | 15896 ft | 338 kts | 175° |
| 2026-04-21 23:38 | -30.03152 | -64.47385 | 15565 ft | 336 kts | 175° |
| 2026-04-21 23:38 | -30.05435 | -64.46900 | 15235 ft | 333 kts | 174° |
| 2026-04-21 23:39 | -30.07705 | -64.46417 | 14903 ft | 331 kts | 174° |
| 2026-04-21 23:39 | -30.09964 | -64.45937 | 14573 ft | 330 kts | 174° |
| 2026-04-21 23:39 | -30.12210 | -64.45459 | 14251 ft | 328 kts | 174° |
| 2026-04-21 23:39 | -30.14443 | -64.44984 | 13919 ft | 327 kts | 174° |
| 2026-04-21 23:40 | -30.16670 | -64.44509 | 13554 ft | 325 kts | 174° |
| 2026-04-21 23:40 | -30.18882 | -64.44038 | 13210 ft | 323 kts | 174° |
| 2026-04-21 23:40 | -30.21078 | -64.43570 | 12879 ft | 321 kts | 173° |
| 2026-04-21 23:40 | -30.23258 | -64.43105 | 12561 ft | 318 kts | 173° |
| 2026-04-21 23:41 | -30.25423 | -64.42644 | 12241 ft | 316 kts | 173° |
| 2026-04-21 23:41 | -30.27572 | -64.42185 | 11924 ft | 314 kts | 173° |
| 2026-04-21 23:41 | -30.29707 | -64.41729 | 11603 ft | 312 kts | 173° |
| 2026-04-21 23:41 | -30.31830 | -64.41276 | 11290 ft | 310 kts | 172° |
| 2026-04-21 23:42 | -30.33939 | -64.40825 | 10974 ft | 308 kts | 172° |
| 2026-04-21 23:42 | -30.36035 | -64.40377 | 10661 ft | 306 kts | 172° |
| 2026-04-21 23:42 | -30.38107 | -64.39934 | 10484 ft | 299 kts | 172° |
| 2026-04-21 23:42 | -30.40124 | -64.39471 | 10307 ft | 294 kts | 165° |
| 2026-04-21 23:43 | -30.41913 | -64.38376 | 10089 ft | 291 kts | 143° |
| 2026-04-21 23:43 | -30.43511 | -64.36970 | 9825 ft | 288 kts | 144° |
| 2026-04-21 23:43 | -30.45102 | -64.35577 | 9511 ft | 286 kts | 144° |
| 2026-04-21 23:43 | -30.46678 | -64.34185 | 9213 ft | 284 kts | 144° |
| 2026-04-21 23:44 | -30.48238 | -64.32800 | 8929 ft | 282 kts | 143° |
| 2026-04-21 23:44 | -30.49783 | -64.31424 | 8645 ft | 280 kts | 143° |
| 2026-04-21 23:44 | -30.51317 | -64.30057 | 8360 ft | 278 kts | 143° |
| 2026-04-21 23:44 | -30.52840 | -64.28696 | 8078 ft | 276 kts | 143° |
| 2026-04-21 23:45 | -30.54355 | -64.27343 | 7801 ft | 274 kts | 143° |
| 2026-04-21 23:45 | -30.57352 | -64.24662 | 7246 ft | 271 kts | 143° |
| 2026-04-21 23:45 | -30.58867 | -64.23381 | 7042 ft | 270 kts | 153° |
| 2026-04-21 23:46 | -30.60649 | -64.22799 | 6938 ft | 269 kts | 178° |
| 2026-04-21 23:46 | -30.62530 | -64.22692 | 6906 ft | 274 kts | 179° |
| 2026-04-21 23:46 | -30.64434 | -64.22593 | 6857 ft | 275 kts | 179° |
| 2026-04-21 23:46 | -30.66341 | -64.22506 | 6808 ft | 275 kts | 179° |
| 2026-04-21 23:47 | -30.68248 | -64.22428 | 6764 ft | 275 kts | 179° |
| 2026-04-21 23:47 | -30.70155 | -64.22356 | 6722 ft | 274 kts | 179° |
| 2026-04-21 23:47 | -30.72058 | -64.22286 | 6682 ft | 274 kts | 179° |
| 2026-04-21 23:47 | -30.73960 | -64.22218 | 6625 ft | 274 kts | 179° |
| 2026-04-21 23:48 | -30.75859 | -64.22152 | 6577 ft | 274 kts | 179° |
| 2026-04-21 23:48 | -30.77759 | -64.22085 | 6534 ft | 274 kts | 179° |
| 2026-04-21 23:48 | -30.79657 | -64.22018 | 6475 ft | 273 kts | 179° |
| 2026-04-21 23:48 | -30.81552 | -64.21952 | 6423 ft | 273 kts | 179° |
| 2026-04-21 23:49 | -30.83442 | -64.21885 | 6372 ft | 272 kts | 179° |
| 2026-04-21 23:49 | -30.85325 | -64.21819 | 6322 ft | 271 kts | 179° |
| 2026-04-21 23:49 | -30.87209 | -64.21753 | 6280 ft | 271 kts | 179° |
| 2026-04-21 23:49 | -30.89077 | -64.21687 | 6224 ft | 266 kts | 179° |
| 2026-04-21 23:50 | -30.90885 | -64.21624 | 6168 ft | 254 kts | 179° |
| 2026-04-21 23:50 | -30.92607 | -64.21564 | 6135 ft | 241 kts | 179° |
| 2026-04-21 23:50 | -30.94235 | -64.21506 | 6079 ft | 229 kts | 179° |
| 2026-04-21 23:50 | -30.95780 | -64.21452 | 6033 ft | 217 kts | 179° |
| 2026-04-21 23:51 | -30.97276 | -64.21400 | 6019 ft | 215 kts | 179° |
| 2026-04-21 23:51 | -30.98770 | -64.21362 | 5954 ft | 214 kts | 180° |
| 2026-04-21 23:51 | -31.00215 | -64.21341 | 5843 ft | 203 kts | 180° |
| 2026-04-21 23:51 | -31.01589 | -64.21318 | 5665 ft | 193 kts | 180° |
| 2026-04-21 23:52 | -31.02914 | -64.21291 | 5528 ft | 189 kts | 180° |
| 2026-04-21 23:52 | -31.04198 | -64.21270 | 5402 ft | 180 kts | 180° |
| 2026-04-21 23:52 | -31.05431 | -64.21247 | 5276 ft | 176 kts | 180° |
| 2026-04-21 23:52 | -31.06643 | -64.21226 | 5241 ft | 173 kts | 180° |
| 2026-04-21 23:53 | -31.07845 | -64.21206 | 5296 ft | 174 kts | 180° |
| 2026-04-21 23:53 | -31.09052 | -64.21187 | 5286 ft | 174 kts | 180° |
| 2026-04-21 23:53 | -31.10256 | -64.21167 | 5261 ft | 173 kts | 180° |
| 2026-04-21 23:53 | -31.11460 | -64.21148 | 5105 ft | 173 kts | 180° |
| 2026-04-21 23:54 | -31.12651 | -64.21128 | 4921 ft | 170 kts | 179° |
| 2026-04-21 23:54 | -31.13832 | -64.21110 | 4716 ft | 169 kts | 179° |
| 2026-04-21 23:54 | -31.14998 | -64.21092 | 4491 ft | 164 kts | 179° |
| 2026-04-21 23:54 | -31.16115 | -64.21074 | 4278 ft | 158 kts | 179° |
| 2026-04-21 23:55 | -31.17203 | -64.21056 | 4069 ft | 156 kts | 179° |
| 2026-04-21 23:55 | -31.18284 | -64.21039 | 3866 ft | 155 kts | 179° |
| 2026-04-21 23:55 | -31.19360 | -64.21022 | 3666 ft | 154 kts | 179° |
| 2026-04-21 23:55 | -31.20430 | -64.21005 | 3469 ft | 154 kts | 179° |
| 2026-04-21 23:56 | -31.21495 | -64.20987 | 3264 ft | 153 kts | 178° |
| 2026-04-21 23:56 | -31.22559 | -64.20971 | 3060 ft | 153 kts | 179° |
| 2026-04-21 23:56 | -31.23623 | -64.20953 | 2860 ft | 153 kts | 179° |
| 2026-04-21 23:56 | -31.24686 | -64.20936 | 2649 ft | 153 kts | 179° |
| 2026-04-21 23:57 | -31.25747 | -64.20919 | 2429 ft | 152 kts | 179° |
| 2026-04-21 23:57 | -31.26804 | -64.20902 | 2211 ft | 152 kts | 179° |
| 2026-04-21 23:57 | -31.27856 | -64.20885 | 2003 ft | 151 kts | 179° |
| 2026-04-21 23:57 | -31.28904 | -64.20877 | 1748 ft | 150 kts | 179° |
| 2026-04-21 23:58 | -31.29931 | -64.20855 | 1639 ft | 142 kts | 178° |
| 2026-04-21 23:58 | -31.30803 | -64.20838 | 1620 ft | 99 kts | 179° |
| 2026-04-21 23:58 | -31.31240 | -64.20831 | 1618 ft | 35 kts | 180° |
| 2026-04-21 23:58 | -31.31384 | -64.20831 | 1619 ft | 18 kts | 179° |
| 2026-04-21 23:59 | -31.31469 | -64.20829 | 1620 ft | 12 kts | 178° |
| 2026-04-21 23:59 | -31.31557 | -64.20825 | 1621 ft | 13 kts | 179° |
| 2026-04-21 23:59 | -31.31645 | -64.20844 | 1623 ft | 11 kts | 201° |
| 2026-04-21 23:59 | -31.31718 | -64.20888 | 1619 ft | 13 kts | 208° |
| 2026-04-22 00:00 | -31.31774 | -64.20929 | 1615 ft | 10 kts | 221° |
| 2026-04-22 00:00 | -31.31791 | -64.21005 | 1617 ft | 11 kts | 291° |
| 2026-04-22 00:00 | -31.31744 | -64.21073 | 1615 ft | 11 kts | 314° |
| 2026-04-22 00:00 | -31.31673 | -64.21101 | 1622 ft | 12 kts | 359° |
| 2026-04-22 00:01 | -31.31611 | -64.21102 | 1620 ft | 8 kts | 359° |
| 2026-04-22 00:01 | -31.31550 | -64.21090 | 1616 ft | 7 kts | 1° |
| 2026-04-22 00:01 | -31.31536 | -64.21109 | 1617 ft | 1 kts | 254° |
| 2026-04-22 00:01 | -31.31543 | -64.21131 | 1618 ft | 5 kts | 252° |
| 2026-04-22 00:02 | -31.31549 | -64.21157 | 1620 ft | 1 kts | 256° |
| 2026-04-22 00:02 | -31.31551 | -64.21167 | 1618 ft | 0 kts | 257° |